createdAt,value
2022-07-25T00:02:30.418Z,62.16
2022-07-25T00:05:02.582Z,62.28
2022-07-25T00:07:35.078Z,61.80
2022-07-25T00:10:08.157Z,62.01
2022-07-25T00:12:40.947Z,62.10
2022-07-25T00:15:14.126Z,62.29
2022-07-25T00:17:46.394Z,61.90
2022-07-25T00:20:18.221Z,62.32
2022-07-25T00:22:49.975Z,62.91
2022-07-25T00:25:21.791Z,62.93
2022-07-25T00:27:54.409Z,62.36
2022-07-25T00:30:27.246Z,62.54
2022-07-25T00:32:57.482Z,62.61
2022-07-25T00:35:29.297Z,62.57
2022-07-25T00:38:01.491Z,62.99
2022-07-25T00:40:33.873Z,62.63
2022-07-25T00:43:06.529Z,62.81
2022-07-25T00:45:39.161Z,62.21
2022-07-25T00:48:10.996Z,62.38
2022-07-25T00:50:42.995Z,62.83
2022-07-25T00:53:15.217Z,62.59
2022-07-25T00:55:47.519Z,63.03
2022-07-25T00:58:19.598Z,63.14
2022-07-25T01:00:51.844Z,63.05
2022-07-25T01:03:25.189Z,63.02
2022-07-25T01:05:57.528Z,62.85
2022-07-25T01:08:29.864Z,62.96
2022-07-25T01:11:01.626Z,63.04
2022-07-25T01:13:36.818Z,63.14
2022-07-25T01:16:11.119Z,63.14
2022-07-25T01:18:43.503Z,63.25
2022-07-25T01:21:15.538Z,63.23
2022-07-25T01:23:47.605Z,63.19
2022-07-25T01:26:19.525Z,63.27
2022-07-25T01:28:51.312Z,63.59
2022-07-25T01:31:23.722Z,63.80
2022-07-25T01:33:55.685Z,63.40
2022-07-25T01:36:27.730Z,63.61
2022-07-25T01:38:59.739Z,63.92
2022-07-25T01:41:31.403Z,63.88
2022-07-25T01:44:03.901Z,63.93
2022-07-25T01:46:36.726Z,63.93
2022-07-25T01:49:08.879Z,63.79
2022-07-25T01:51:41.142Z,64.16
2022-07-25T01:54:12.810Z,64.05
2022-07-25T01:56:48.312Z,64.16
2022-07-25T01:59:20.288Z,63.91
2022-07-25T02:01:52.159Z,64.37
2022-07-25T02:04:24.122Z,66.95
2022-07-25T02:06:55.835Z,66.62
2022-07-25T02:09:27.606Z,64.72
2022-07-25T02:12:01.347Z,63.39
2022-07-25T02:14:34.130Z,62.91
2022-07-25T02:17:06.269Z,62.42
2022-07-25T02:19:38.367Z,61.80
2022-07-25T02:22:10.438Z,60.82
2022-07-25T02:24:42.396Z,60.96
2022-07-25T02:27:14.121Z,62.32
2022-07-25T02:29:45.885Z,62.65
2022-07-25T02:32:17.622Z,63.24
2022-07-25T02:34:49.308Z,63.90
2022-07-25T02:37:21.116Z,63.89
2022-07-25T02:39:53.075Z,64.13
2022-07-25T02:42:24.893Z,64.50
2022-07-25T02:44:56.867Z,64.56
2022-07-25T02:47:29.750Z,64.41
2022-07-25T02:50:01.565Z,64.95
2022-07-25T02:52:34.297Z,65.34
2022-07-25T02:55:09.857Z,65.79
2022-07-25T02:57:41.780Z,65.81
2022-07-25T03:00:16.927Z,66.24
2022-07-25T03:02:48.912Z,66.26
2022-07-25T03:05:21.401Z,66.14
2022-07-25T03:07:53.461Z,66.19
2022-07-25T03:10:25.177Z,65.94
2022-07-25T03:12:56.969Z,66.35
2022-07-25T03:15:28.935Z,66.49
2022-07-25T03:18:01.594Z,66.86
2022-07-25T03:20:33.441Z,66.83
2022-07-25T03:23:05.407Z,67.17
2022-07-25T03:25:37.191Z,67.60
2022-07-25T03:28:09.588Z,67.75
2022-07-25T03:30:41.731Z,67.71
2022-07-25T03:33:13.578Z,68.09
2022-07-25T03:35:45.424Z,67.89
2022-07-25T03:38:17.223Z,68.30
2022-07-25T03:40:49.539Z,68.20
2022-07-25T03:43:21.649Z,68.31
2022-07-25T03:45:53.659Z,68.26
2022-07-25T03:48:25.853Z,68.36
2022-07-25T03:51:01.212Z,68.41
2022-07-25T03:53:57.006Z,68.19
2022-07-25T03:56:29.251Z,68.45
2022-07-25T03:59:01.050Z,68.13
2022-07-25T04:01:33.363Z,68.60
2022-07-25T04:04:06.354Z,68.32
2022-07-25T04:06:38.985Z,68.69
2022-07-25T04:09:12.082Z,68.55
2022-07-25T04:11:44.078Z,68.48
2022-07-25T04:14:15.888Z,68.34
2022-07-25T04:16:47.881Z,68.08
2022-07-25T04:19:20.056Z,68.17
2022-07-25T04:21:51.829Z,67.98
2022-07-25T04:24:23.576Z,67.94
2022-07-25T04:26:55.332Z,68.09
2022-07-25T04:29:27.177Z,68.10
2022-07-25T04:31:59.142Z,68.18
2022-07-25T04:34:31.107Z,68.11
2022-07-25T04:37:02.827Z,67.90
2022-07-25T04:39:34.712Z,67.36
2022-07-25T04:42:06.923Z,67.02
2022-07-25T04:44:38.791Z,67.29
2022-07-25T04:47:10.669Z,67.39
2022-07-25T04:49:43.096Z,67.39
2022-07-25T04:52:14.967Z,67.29
2022-07-25T04:54:47.085Z,66.87
2022-07-25T04:57:19.864Z,66.23
2022-07-25T04:59:52.000Z,66.27
2022-07-25T05:02:23.904Z,65.56
2022-07-25T05:04:55.971Z,65.38
2022-07-25T05:07:29.089Z,64.84
2022-07-25T05:10:00.805Z,64.40
2022-07-25T05:12:32.539Z,63.87
2022-07-25T05:15:05.039Z,63.42
2022-07-25T05:17:36.829Z,63.38
2022-07-25T05:20:11.400Z,63.05
2022-07-25T05:22:43.616Z,62.76
2022-07-25T05:25:15.685Z,62.47
2022-07-25T05:27:47.520Z,62.35
2022-07-25T05:30:19.495Z,61.60
2022-07-25T05:32:51.302Z,61.45
2022-07-25T05:35:22.995Z,61.34
2022-07-25T05:37:54.703Z,61.21
2022-07-25T05:40:26.507Z,60.51
2022-07-25T05:43:02.907Z,60.61
2022-07-25T05:45:35.425Z,60.59
2022-07-25T05:48:07.813Z,60.61
2022-07-25T05:50:38.955Z,60.26
2022-07-25T05:53:10.756Z,60.14
2022-07-25T05:55:42.488Z,59.83
2022-07-25T05:58:14.244Z,59.37
2022-07-25T06:00:46.027Z,59.30
2022-07-25T06:03:17.963Z,59.29
2022-07-25T06:05:50.355Z,58.92
2022-07-25T06:08:22.471Z,58.45
2022-07-25T06:10:54.414Z,58.46
2022-07-25T06:13:26.953Z,57.88
2022-07-25T06:16:00.101Z,57.36
2022-07-25T06:18:32.605Z,57.28
2022-07-25T06:21:04.782Z,57.34
2022-07-25T06:23:36.623Z,56.73
2022-07-25T06:26:11.529Z,56.24
2022-07-25T06:28:43.371Z,56.04
2022-07-25T06:31:15.244Z,55.70
2022-07-25T06:33:47.313Z,55.50
2022-07-25T06:36:19.046Z,55.25
2022-07-25T06:38:51.003Z,54.87
2022-07-25T06:41:22.900Z,54.60
2022-07-25T06:43:55.247Z,54.57
2022-07-25T06:46:31.109Z,54.04
2022-07-25T06:49:03.375Z,53.57
2022-07-25T06:51:36.384Z,53.28
2022-07-25T06:54:08.905Z,53.16
2022-07-25T06:56:41.006Z,53.00
2022-07-25T06:59:12.680Z,52.91
2022-07-25T07:01:49.514Z,52.93
2022-07-25T07:04:23.233Z,57.41
2022-07-25T07:06:54.954Z,59.29
2022-07-25T07:09:26.657Z,57.39
2022-07-25T07:11:58.374Z,56.45
2022-07-25T07:14:30.373Z,56.86
2022-07-25T07:17:02.165Z,56.81
2022-07-25T07:19:34.153Z,54.72
2022-07-25T07:22:07.144Z,55.41
2022-07-25T07:24:44.036Z,52.92
2022-07-25T07:27:19.091Z,48.74
2022-07-25T07:29:51.150Z,52.24
2022-07-25T07:32:23.395Z,54.18
2022-07-25T07:34:55.075Z,51.24
2022-07-25T07:37:29.402Z,50.15
2022-07-25T07:40:04.260Z,51.78
2022-07-25T07:42:41.939Z,50.39
2022-07-25T07:45:19.089Z,50.40
2022-07-25T07:47:52.817Z,50.37
2022-07-25T07:50:27.063Z,48.29
2022-07-25T07:52:59.623Z,46.31
2022-07-25T07:55:48.776Z,49.14
2022-07-25T07:58:21.805Z,49.53
2022-07-25T08:00:54.391Z,47.72
2022-07-25T08:03:24.564Z,47.43
2022-07-25T08:05:56.460Z,43.68
2022-07-25T08:08:31.349Z,44.19
2022-07-25T08:11:03.408Z,43.23
2022-07-25T08:13:35.213Z,43.91
2022-07-25T08:16:07.879Z,45.39
2022-07-25T08:18:39.876Z,43.66
2022-07-25T08:21:12.831Z,44.60
2022-07-25T08:23:47.152Z,46.98
2022-07-25T08:26:19.092Z,44.52
2022-07-25T08:29:04.932Z,43.75
2022-07-25T08:31:42.695Z,43.97
2022-07-25T08:34:14.486Z,44.71
2022-07-25T08:36:46.205Z,41.66
2022-07-25T08:39:18.005Z,42.13
2022-07-25T08:41:50.752Z,42.12
2022-07-25T08:44:23.662Z,41.13
2022-07-25T08:46:56.012Z,41.07
2022-07-25T08:49:28.310Z,40.56
2022-07-25T08:52:01.527Z,40.07
2022-07-25T08:54:34.788Z,39.78
2022-07-25T08:57:07.087Z,39.86
2022-07-25T08:59:38.893Z,39.79
2022-07-25T09:02:14.337Z,39.48
2022-07-25T09:04:46.290Z,39.20
2022-07-25T09:07:18.286Z,39.17
2022-07-25T09:09:50.082Z,37.95
2022-07-25T09:12:28.510Z,38.05
2022-07-25T09:15:00.227Z,37.62
2022-07-25T09:17:32.384Z,36.91
2022-07-25T09:20:06.527Z,38.04
2022-07-25T09:22:48.222Z,37.33
2022-07-25T09:25:29.939Z,36.79
2022-07-25T09:28:14.772Z,37.31
2022-07-25T09:30:57.506Z,36.87
2022-07-25T09:33:30.886Z,36.36
2022-07-25T09:36:12.983Z,35.90
2022-07-25T09:38:54.283Z,36.17
2022-07-25T09:41:36.436Z,36.10
2022-07-25T09:44:18.715Z,35.34
2022-07-25T09:46:51.350Z,35.00
2022-07-25T09:49:23.400Z,34.21
2022-07-25T09:51:55.906Z,34.47
2022-07-25T09:54:27.841Z,34.63
2022-07-25T09:57:07.504Z,34.20
2022-07-25T09:59:39.595Z,33.62
2022-07-25T10:02:14.893Z,33.47
2022-07-25T10:04:54.320Z,32.99
2022-07-25T10:07:31.210Z,32.97
2022-07-25T10:10:03.514Z,32.97
2022-07-25T10:12:38.253Z,32.88
2022-07-25T10:15:13.726Z,32.78
2022-07-25T10:17:45.742Z,32.30
2022-07-25T10:20:28.452Z,32.23
2022-07-25T10:23:00.799Z,31.79
2022-07-25T10:25:32.814Z,31.18
2022-07-25T10:28:10.588Z,31.19
2022-07-25T10:30:44.350Z,31.34
2022-07-25T10:33:21.536Z,31.42
2022-07-25T10:35:53.307Z,31.02
2022-07-25T10:38:31.067Z,30.75
2022-07-25T10:41:05.473Z,31.38
2022-07-25T10:43:43.655Z,30.62
2022-07-25T10:46:23.233Z,29.89
2022-07-25T10:49:03.318Z,30.05
2022-07-25T10:51:41.484Z,30.06
2022-07-25T10:54:18.652Z,30.07
2022-07-25T10:56:59.684Z,29.93
2022-07-25T10:59:34.434Z,29.68
2022-07-25T11:02:08.665Z,29.37
2022-07-25T11:04:40.537Z,29.01
2022-07-25T11:07:14.428Z,29.03
2022-07-25T11:09:57.415Z,29.03
2022-07-25T11:12:29.299Z,29.56
2022-07-25T11:15:07.398Z,29.67
2022-07-25T11:17:39.149Z,29.43
2022-07-25T11:20:13.413Z,29.57
2022-07-25T11:22:51.926Z,28.73
2022-07-25T11:25:24.781Z,28.95
2022-07-25T11:28:02.386Z,28.99
2022-07-25T11:30:34.508Z,28.37
2022-07-25T11:33:06.414Z,28.37
2022-07-25T11:35:38.387Z,28.26
2022-07-25T11:38:15.011Z,28.29
2022-07-25T11:40:48.491Z,28.47
2022-07-25T11:43:24.799Z,28.06
2022-07-25T11:46:01.955Z,27.91
2022-07-25T11:48:37.032Z,27.67
2022-07-25T11:51:18.602Z,27.65
2022-07-25T11:53:53.687Z,27.32
2022-07-25T11:56:42.027Z,27.60
2022-07-25T11:59:16.605Z,27.60
2022-07-25T12:01:48.826Z,27.58
2022-07-25T12:04:21.054Z,27.50
2022-07-25T12:06:52.820Z,27.10
2022-07-25T12:09:24.972Z,26.99
2022-07-25T12:12:05.452Z,27.14
2022-07-25T12:14:46.139Z,27.30
2022-07-25T12:17:17.847Z,26.72
2022-07-25T12:19:49.652Z,26.70
2022-07-25T12:22:21.489Z,26.94
2022-07-25T12:24:53.257Z,26.83
2022-07-25T12:27:25.937Z,26.65
2022-07-25T12:29:58.161Z,26.43
2022-07-25T12:32:30.885Z,26.86
2022-07-25T12:35:02.650Z,26.48
2022-07-25T12:37:34.970Z,26.53
2022-07-25T12:40:05.723Z,26.21
2022-07-25T12:42:37.481Z,26.14
2022-07-25T12:45:11.847Z,26.62
2022-07-25T12:47:45.309Z,26.63
2022-07-25T12:50:18.977Z,26.31
2022-07-25T12:52:51.071Z,26.64
2022-07-25T12:55:23.820Z,26.44
2022-07-25T12:57:55.615Z,26.71
2022-07-25T13:00:28.164Z,26.59
2022-07-25T13:03:00.406Z,26.48
2022-07-25T13:05:32.236Z,26.58
2022-07-25T13:08:07.450Z,26.77
2022-07-25T13:10:39.331Z,26.65
2022-07-25T13:13:11.420Z,26.42
2022-07-25T13:15:42.059Z,26.06
2022-07-25T13:18:14.169Z,26.16
2022-07-25T13:20:46.594Z,26.16
2022-07-25T13:23:20.816Z,26.02
2022-07-25T13:25:53.302Z,25.84
2022-07-25T13:28:25.437Z,25.92
2022-07-25T13:30:56.752Z,25.74
2022-07-25T13:33:29.436Z,25.56
2022-07-25T13:35:59.715Z,25.53
2022-07-25T13:38:31.608Z,25.86
2022-07-25T13:41:03.498Z,25.89
2022-07-25T13:43:35.405Z,25.60
2022-07-25T13:46:07.535Z,25.69
2022-07-25T13:48:40.782Z,24.93
2022-07-25T13:51:12.749Z,25.14
2022-07-25T13:53:45.329Z,25.35
2022-07-25T13:56:17.767Z,25.20
2022-07-25T13:58:49.510Z,25.79
2022-07-25T14:01:21.638Z,25.36
2022-07-25T14:03:55.093Z,24.93
2022-07-25T14:06:26.881Z,24.79
2022-07-25T14:09:00.122Z,24.63
2022-07-25T14:11:32.509Z,24.44
2022-07-25T14:14:02.708Z,24.58
2022-07-25T14:16:35.123Z,24.60
2022-07-25T14:19:08.131Z,24.28
2022-07-25T14:21:40.330Z,24.19
2022-07-25T14:24:12.366Z,23.92
2022-07-25T14:26:44.229Z,24.20
2022-07-25T14:29:16.046Z,23.65
2022-07-25T14:31:48.772Z,24.46
2022-07-25T14:34:21.890Z,24.21
2022-07-25T14:36:54.133Z,23.79
2022-07-25T14:39:25.859Z,23.63
2022-07-25T14:41:59.369Z,23.85
2022-07-25T14:44:31.373Z,24.34
2022-07-25T14:47:01.714Z,23.73
2022-07-25T14:49:33.544Z,23.37
2022-07-25T14:52:05.859Z,23.04
2022-07-25T14:54:37.675Z,23.54
2022-07-25T14:57:09.949Z,22.76
2022-07-25T14:59:42.133Z,22.52
2022-07-25T15:02:14.393Z,22.99
2022-07-25T15:04:46.794Z,22.70
2022-07-25T15:07:18.679Z,22.29
2022-07-25T15:09:48.982Z,22.36
2022-07-25T15:12:21.755Z,22.17
2022-07-25T15:14:53.875Z,22.22
2022-07-25T15:17:25.642Z,21.71
2022-07-25T15:19:57.392Z,22.44
2022-07-25T15:22:29.545Z,21.94
2022-07-25T15:27:53.141Z,22.01
2022-07-25T15:30:29.193Z,21.96
2022-07-25T15:33:01.633Z,21.43
2022-07-25T15:35:33.980Z,21.45
2022-07-25T15:38:06.142Z,21.37
2022-07-25T15:40:38.039Z,21.60
2022-07-25T15:43:08.269Z,21.53
2022-07-25T15:45:42.101Z,21.39
2022-07-25T15:48:17.727Z,21.63
2022-07-25T15:50:51.543Z,21.27
2022-07-25T15:53:23.937Z,21.16
2022-07-25T15:55:55.780Z,21.17
2022-07-25T15:58:27.995Z,20.86
2022-07-25T16:00:59.889Z,20.94
2022-07-25T16:03:30.226Z,21.23
2022-07-25T16:06:04.063Z,21.45
2022-07-25T16:08:37.519Z,21.71
2022-07-25T16:11:09.352Z,20.90
2022-07-25T16:13:42.048Z,20.95
2022-07-25T16:16:13.840Z,20.55
2022-07-25T16:18:44.448Z,20.45
2022-07-25T16:21:16.606Z,20.75
2022-07-25T16:23:46.799Z,21.16
2022-07-25T16:26:18.578Z,21.18
2022-07-25T16:28:56.091Z,20.97
2022-07-25T16:31:29.543Z,20.76
2022-07-25T16:34:01.502Z,20.66
2022-07-25T16:36:33.764Z,20.68
2022-07-25T16:39:06.784Z,20.58
2022-07-25T16:41:38.805Z,20.76
2022-07-25T16:44:10.827Z,20.49
2022-07-25T16:46:42.598Z,20.51
2022-07-25T16:49:15.543Z,20.50
2022-07-25T16:51:48.437Z,20.95
2022-07-25T16:54:20.580Z,21.24
2022-07-25T16:56:54.274Z,21.13
2022-07-25T16:59:27.740Z,20.80
2022-07-25T17:01:59.707Z,21.16
2022-07-25T17:04:32.278Z,22.02
2022-07-25T17:07:04.302Z,22.63
2022-07-25T17:09:36.171Z,22.96
2022-07-25T17:12:08.667Z,23.37
2022-07-25T17:14:40.540Z,24.16
2022-07-25T17:17:12.594Z,24.37
2022-07-25T17:19:44.601Z,24.68
2022-07-25T17:22:16.361Z,25.19
2022-07-25T17:24:48.109Z,25.41
2022-07-25T17:27:19.744Z,25.97
2022-07-25T17:29:51.619Z,26.67
2022-07-25T17:32:27.842Z,26.53
2022-07-25T17:35:01.808Z,26.28
2022-07-25T17:37:33.799Z,26.11
2022-07-25T17:40:07.712Z,26.40
2022-07-25T17:42:44.890Z,26.77
2022-07-25T17:45:17.786Z,26.68
2022-07-25T17:47:49.836Z,26.89
2022-07-25T17:50:28.572Z,27.16
2022-07-25T17:53:01.290Z,27.27
2022-07-25T17:55:36.869Z,27.36
2022-07-25T17:58:11.177Z,27.64
2022-07-25T18:00:43.080Z,27.69
2022-07-25T18:03:14.974Z,27.74
2022-07-25T18:05:47.738Z,27.77
2022-07-25T18:08:19.799Z,27.91
2022-07-25T18:10:52.101Z,28.19
2022-07-25T18:13:24.410Z,28.45
2022-07-25T18:15:56.614Z,28.77
2022-07-25T18:18:30.031Z,28.76
2022-07-25T18:21:01.912Z,29.03
2022-07-25T18:23:33.582Z,29.29
2022-07-25T18:26:05.821Z,29.42
2022-07-25T18:28:37.837Z,29.46
2022-07-25T18:31:10.394Z,29.98
2022-07-25T18:33:42.287Z,29.88
2022-07-25T18:36:14.163Z,29.95
2022-07-25T18:38:46.418Z,29.98
2022-07-25T18:41:29.030Z,30.40
2022-07-25T18:44:01.621Z,30.34
2022-07-25T18:46:33.330Z,30.53
2022-07-25T18:49:05.553Z,31.32
2022-07-25T18:51:40.041Z,32.15
2022-07-25T18:54:10.608Z,32.32
2022-07-25T18:56:43.648Z,32.26
2022-07-25T18:59:16.141Z,32.50
2022-07-25T19:01:50.207Z,32.52
2022-07-25T19:04:22.164Z,33.48
2022-07-25T19:06:54.622Z,33.42
2022-07-25T19:09:26.972Z,33.29
2022-07-25T19:11:58.769Z,32.42
2022-07-25T19:14:30.944Z,33.25
2022-07-25T19:17:05.103Z,33.14
2022-07-25T19:19:36.989Z,33.03
2022-07-25T19:22:09.450Z,34.15
2022-07-25T19:24:42.220Z,32.96
2022-07-25T19:27:14.422Z,34.01
2022-07-25T19:29:49.164Z,38.81
2022-07-25T19:32:22.577Z,34.10
2022-07-25T19:34:54.707Z,33.29
2022-07-25T19:37:25.317Z,33.99
2022-07-25T19:39:57.651Z,33.69
2022-07-25T19:42:30.000Z,33.33
2022-07-25T19:45:02.226Z,33.55
2022-07-25T19:47:34.798Z,33.71
2022-07-25T19:50:07.607Z,33.79
2022-07-25T19:52:39.848Z,33.77
2022-07-25T19:55:11.035Z,33.77
2022-07-25T19:57:43.817Z,33.98
2022-07-25T20:00:16.941Z,34.22
2022-07-25T20:02:48.951Z,34.24
2022-07-25T20:05:22.190Z,34.18
2022-07-25T20:07:54.080Z,34.26
2022-07-25T20:10:26.821Z,34.38
2022-07-25T20:13:01.382Z,34.48
2022-07-25T20:15:34.135Z,34.49
2022-07-25T20:18:06.174Z,34.68
2022-07-25T20:20:38.149Z,34.66
2022-07-25T20:23:10.143Z,34.69
2022-07-25T20:25:41.829Z,34.79
2022-07-25T20:28:13.796Z,34.83
2022-07-25T20:30:46.142Z,34.83
2022-07-25T20:33:19.143Z,34.96
2022-07-25T20:35:50.921Z,34.85
2022-07-25T20:38:24.931Z,34.83
2022-07-25T20:40:57.153Z,34.97
2022-07-25T20:43:29.864Z,35.02
2022-07-25T20:46:06.098Z,34.96
2022-07-25T20:48:41.170Z,35.05
2022-07-25T20:51:13.959Z,35.11
2022-07-25T20:53:45.948Z,35.31
2022-07-25T20:56:25.318Z,35.22
2022-07-25T20:58:57.080Z,35.25
2022-07-25T21:01:28.909Z,35.40
2022-07-25T21:04:04.286Z,35.45
2022-07-25T21:06:38.868Z,35.55
2022-07-25T21:09:10.984Z,35.58
2022-07-25T21:11:43.568Z,35.64
2022-07-25T21:14:15.257Z,35.63
2022-07-25T21:16:47.024Z,35.62
2022-07-25T21:19:18.749Z,35.70
2022-07-25T21:21:50.990Z,35.66
2022-07-25T21:24:22.738Z,35.76
2022-07-25T21:26:54.442Z,35.88
2022-07-25T21:29:26.297Z,35.92
2022-07-25T21:31:58.128Z,35.89
2022-07-25T21:34:29.959Z,36.04
2022-07-25T21:37:02.022Z,35.98
2022-07-25T21:39:34.250Z,36.07
2022-07-25T21:42:09.763Z,36.26
2022-07-25T21:44:42.740Z,36.34
2022-07-25T21:47:14.841Z,36.27
2022-07-25T21:50:04.740Z,36.21
2022-07-25T21:52:36.642Z,36.36
2022-07-25T21:55:09.413Z,36.33
2022-07-25T21:57:41.263Z,36.49
2022-07-25T22:00:15.846Z,36.54
2022-07-25T22:02:48.962Z,36.72
2022-07-25T22:05:21.420Z,36.87
2022-07-25T22:07:53.339Z,37.17
2022-07-25T22:10:26.334Z,37.21
2022-07-25T22:12:58.377Z,37.45
2022-07-25T22:15:30.191Z,37.52
2022-07-25T22:18:02.024Z,37.29
2022-07-25T22:20:33.673Z,37.04
2022-07-25T22:23:05.823Z,37.02
2022-07-25T22:25:37.648Z,37.01
2022-07-25T22:28:09.520Z,36.88
2022-07-25T22:30:46.096Z,36.88
2022-07-25T22:33:17.963Z,36.82
2022-07-25T22:35:49.611Z,36.55
2022-07-25T22:38:21.761Z,36.88
2022-07-25T22:40:53.615Z,37.00
2022-07-25T22:43:25.666Z,36.71
2022-07-25T22:46:17.490Z,37.15
2022-07-25T22:48:49.399Z,37.31
2022-07-25T22:51:21.518Z,37.15
2022-07-25T22:53:53.396Z,37.02
2022-07-25T22:56:25.320Z,36.95
2022-07-25T22:58:57.016Z,36.87
2022-07-25T23:01:28.715Z,36.84
2022-07-25T23:04:00.577Z,36.90
2022-07-25T23:06:32.397Z,36.96
2022-07-25T23:09:04.935Z,37.02
2022-07-25T23:11:37.665Z,36.99
2022-07-25T23:14:09.674Z,37.01
2022-07-25T23:16:41.552Z,37.01
2022-07-25T23:19:13.324Z,37.08
2022-07-25T23:21:45.004Z,37.09
2022-07-25T23:24:16.851Z,37.22
2022-07-25T23:26:48.562Z,37.37
2022-07-25T23:29:20.259Z,37.43
2022-07-25T23:31:52.393Z,37.69
2022-07-25T23:34:24.340Z,37.73
2022-07-25T23:36:56.599Z,37.71
2022-07-25T23:39:28.350Z,37.66
2022-07-25T23:42:00.658Z,38.03
2022-07-25T23:44:31.529Z,38.36
2022-07-25T23:47:03.213Z,38.44
2022-07-25T23:49:36.806Z,38.41
2022-07-25T23:52:09.025Z,38.22
2022-07-25T23:54:41.058Z,37.87
2022-07-25T23:57:12.909Z,38.09
2022-07-25T23:59:44.554Z,38.06
